Estación Meteorológica Peña el Pijo (Robertgarden) [ 11/24/17 15:35:04 CET ]

Fecha Hora Presion(HPa) Temp (°C) Humedad % Rocio (°C) Viento ( m/s) Direccion Lluvia 1Hora(mm) Lluvia 24H(mm) LLuvia Total(mm)
2017-Jun-01 01:01:54 1013.200 12.6 85 10.1       3.62 1412.58
2017-Jun-01 02:01:43 1012.500 11.8 86 9.5       3.62 1412.58
2017-Jun-01 03:01:37 1012.200 10.7 87 8.6       3.62 1412.58
2017-Jun-01 04:01:36 1012.300 10.3 87 8.2       3.62 1412.58
2017-Jun-01 05:01:39 1012.000 10.1 88 8.2       3.62 1412.58
2017-Jun-01 06:01:34 1012.100 9.7 88 7.8       3.62 1412.58
2017-Jun-01 07:01:33 1012.100 9.6 89 7.9       3.62 1412.58
2017-Jun-01 08:01:49 1012.200 11.3 90 9.7       3.62 1412.58
2017-Jun-01 09:01:50 1012.300 15.8 90 14.2       3.62 1412.58
2017-Jun-01 10:01:37 1012.100 21.3 67 14.9       3.62 1412.58
2017-Jun-01 11:01:56 1012.000 24.4 51 13.6       3.62 1412.58
2017-Jun-01 12:01:50 1012.000 26.9 42 12.9       3.62 1412.58
2017-Jun-01 13:01:46 1012.000 28.3 40 13.5 2.5 S   3.62 1412.58
2017-Jun-01 14:01:35 1011.600 28.3 39 13.0       3.62 1412.58
2017-Jun-01 15:01:43 1011.200 28.1 38 12.4       1.55 1412.58
2017-Jun-01 16:01:56 1010.800 29.3 37 13.0       1.03 1412.58
2017-Jun-01 17:01:44 1011.800 20.4 58 11.8 3.1 SSE 0.51 1.55 1413.10
2017-Jun-01 18:01:30 1011.400 21.9 61 14.0     1.55 2.07 1414.65
2017-Jun-01 19:01:43 1011.000 25.9 49 14.4       2.07 1414.65
2017-Jun-01 20:01:54 1011.000 23.6 52 13.2 1.8 S   2.07 1414.65
2017-Jun-01 21:01:49 1011.400 20.6 60 12.6       2.07 1414.65
2017-Jun-01 22:02:03 1011.800 17.9 70 12.4       2.07 1414.65
2017-Jun-01 23:01:34 1012.300 16.4 73 11.6       2.07 1414.65

Temperatura Máxima:29°    Temperatura Mínima:
Presión Máxima:1013.200 Hpa    Presión Mínima:1010.800 Hpa


Volver